地図

経路データ

SID SEASON NUMBER BASIN SUBBASIN NAME ISO_TIME NATURE LAT LON WMO_WIND WMO_PRES WMO_AGENCY TRACK_TYPE DIST2LAND LANDFALL IFLAG USA_AGENCY USA_ATCF_ID USA_LAT USA_LON USA_RECORD USA_STATUS USA_WIND USA_PRES USA_SSHS USA_R34_NE USA_R34_SE USA_R34_SW USA_R34_NW USA_R50_NE USA_R50_SE USA_R50_SW USA_R50_NW USA_R64_NE USA_R64_SE USA_R64_SW USA_R64_NW USA_POCI USA_ROCI USA_RMW USA_EYE TOKYO_LAT TOKYO_LON TOKYO_GRADE TOKYO_WIND TOKYO_PRES TOKYO_R50_DIR TOKYO_R50_LONG TOKYO_R50_SHORT TOKYO_R30_DIR TOKYO_R30_LONG TOKYO_R30_SHORT TOKYO_LAND CMA_LAT CMA_LON CMA_CAT CMA_WIND CMA_PRES HKO_LAT HKO_LON HKO_CAT HKO_WIND HKO_PRES NEWDELHI_LAT NEWDELHI_LON NEWDELHI_GRADE NEWDELHI_WIND NEWDELHI_PRES NEWDELHI_CI NEWDELHI_DP NEWDELHI_POCI REUNION_LAT REUNION_LON REUNION_TYPE REUNION_WIND REUNION_PRES REUNION_TNUM REUNION_CI REUNION_RMW REUNION_R34_NE REUNION_R34_SE REUNION_R34_SW REUNION_R34_NW REUNION_R50_NE REUNION_R50_SE REUNION_R50_SW REUNION_R50_NW REUNION_R64_NE REUNION_R64_SE REUNION_R64_SW REUNION_R64_NW BOM_LAT BOM_LON BOM_TYPE BOM_WIND BOM_PRES BOM_TNUM BOM_CI BOM_RMW BOM_R34_NE BOM_R34_SE BOM_R34_SW BOM_R34_NW BOM_R50_NE BOM_R50_SE BOM_R50_SW BOM_R50_NW BOM_R64_NE BOM_R64_SE BOM_R64_SW BOM_R64_NW BOM_ROCI BOM_POCI BOM_EYE BOM_POS_METHOD BOM_PRES_METHOD NADI_LAT NADI_LON NADI_CAT NADI_WIND NADI_PRES WELLINGTON_LAT WELLINGTON_LON WELLINGTON_WIND WELLINGTON_PRES DS824_LAT DS824_LON DS824_STAGE DS824_WIND DS824_PRES TD9636_LAT TD9636_LON TD9636_STAGE TD9636_WIND TD9636_PRES TD9635_LAT TD9635_LON TD9635_WIND TD9635_PRES TD9635_ROCI NEUMANN_LAT NEUMANN_LON NEUMANN_CLASS NEUMANN_WIND NEUMANN_PRES MLC_LAT MLC_LON MLC_CLASS MLC_WIND MLC_PRES USA_GUST BOM_GUST BOM_GUST_PER REUNION_GUST REUNION_GUST_PER USA_SEAHGT USA_SEARAD_NE USA_SEARAD_SE USA_SEARAD_SW USA_SEARAD_NW STORM_SPEED STORM_DIR
1953231N32116 1953 42 WP MM NINA 1953-08-18 12:00:00 TS 31.6000 115.600 spur-other 0 0 __O___________ -1 31.6000 115.600 0 19 987 6 303
1953231N32116 1953 42 WP MM NINA 1953-08-18 15:00:00 TS 31.7574 115.312 spur-other 0 0 __P___________ -1 31.7627 115.328 0 19 987 5 305
1953231N32116 1953 42 WP MM NINA 1953-08-18 18:00:00 TS 31.9000 115.100 spur-other 0 0 __O___________ -1 31.9000 115.100 0 19 988 4 308
1953231N32116 1953 42 WP MM NINA 1953-08-18 21:00:00 TS 31.9999 114.942 spur-other 0 0 __P___________ -1 31.9999 114.942 0 19 989 3 308
1953231N32116 1953 42 WP MM NINA 1953-08-19 00:00:00 TS 32.1000 114.800 spur-other 0 0 __O___________ -1 32.1000 114.800 0 19 990 4 309
1953231N32116 1953 42 WP MM NINA 1953-08-19 03:00:00 TS 32.2350 114.600 spur-other 0 0 __P___________ -1 32.2350 114.600 0 24 990 5 312
1953231N32116 1953 42 WP MM NINA 1953-08-19 06:00:00 TS 32.4000 114.400 spur-other 0 0 __O___________ -1 32.4000 114.400 1 29 990 5 315
1953231N32116 1953 42 WP MM NINA 1953-08-19 09:00:00 TS 32.5625 114.213 spur-other 0 0 __P___________ -1 32.5625 114.213 1 24 990 5 328
1953231N32116 1953 42 WP MM NINA 1953-08-19 12:00:00 TS 32.8000 114.100 spur-other 0 0 __O___________ -1 32.8000 114.100 0 19 990 6 349
1953231N32116 1953 42 WP MM NINA 1953-08-19 15:00:00 TS 33.1624 114.083 spur-other 0 0 __P___________ -1 33.1624 114.083 0 19 991 8 6
1953231N32116 1953 42 WP MM NINA 1953-08-19 18:00:00 TS 33.6000 114.200 spur-other 0 0 __O___________ -1 33.6000 114.200 0 19 992 9 19
1953231N32116 1953 42 WP MM NINA 1953-08-19 21:00:00 TS 34.0576 114.455 spur-other 0 0 __P___________ -1 34.0576 114.455 0 19 993 10 29
1953231N32116 1953 42 WP MM NINA 1953-08-20 00:00:00 ET 34.5000 114.800 spur-other 0 0 __O___________ -1 34.5000 114.800 9 19 995 10 33
1953231N32116 1953 42 WP MM NINA 1953-08-20 03:00:00 ET 34.8721 115.106 spur-other 0 0 __P___________ -1 34.8721 115.106 9 19 996 9 39
1953231N32116 1953 42 WP MM NINA 1953-08-20 06:00:00 ET 35.2000 115.500 spur-other 0 0 __O___________ -1 35.2000 115.500 9 19 998 10 51
1953231N32116 1953 42 WP MM NINA 1953-08-20 09:00:00 ET 35.5079 116.077 spur-other 0 0 __P___________ -1 35.5079 116.077 9 19 998 11 58
1953231N32116 1953 42 WP MM NINA 1953-08-20 12:00:00 ET 35.8000 116.700 spur-other 0 0 __O___________ -1 35.8000 116.700 9 19 998 11 58
1953231N32116 1953 42 WP MM NINA 1953-08-20 15:00:00 ET 36.0921 117.216 spur-other 0 0 __P___________ -1 36.0921 117.216 9 24 999 10 53
1953231N32116 1953 42 WP MM NINA 1953-08-20 18:00:00 ET 36.4000 117.700 spur-other 0 0 __O___________ -1 36.4000 117.700 9 29 1000 10 50
1953231N32116 1953 42 WP MM NINA 1953-08-20 21:00:00 ET 36.7266 118.156 spur-other 0 0 __P___________ -1 36.7266 118.156 9 26 1002 11 49
1953231N32116 1953 42 WP MM NINA 1953-08-21 00:00:00 ET 37.1000 118.700 spur-other 0 0 __O___________ -1 37.1000 118.700 9 23 1004 13 51
1953231N32116 1953 42 WP MM NINA 1953-08-21 03:00:00 ET 37.5651 119.446 spur-other 28 20 __P___________ -1 37.5651 119.446 9 23 1004 16 55
1953231N32116 1953 42 WP MM NINA 1953-08-21 06:00:00 ET 38.0000 120.300 spur-other 33 33 __O___________ -1 38.0000 120.300 9 23 1004 15 61
1953231N32116 1953 42 WP MM NINA 1953-08-21 09:00:00 ET 38.3022 121.151 spur-other 45 37 __P___________ -1 38.3022 121.151 9 23 1006 14 69
1953231N32116 1953 42 WP MM NINA 1953-08-21 12:00:00 ET 38.5000 122.000 spur-other 56 56 __O___________ -1 38.5000 122.000 9 23 1008 13 76
1953231N32116 1953 42 WP MM NINA 1953-08-21 15:00:00 ET 38.6296 122.823 spur-other 88 88 __P___________ -1 38.6296 122.823 9 23 1008 13 81
1953231N32116 1953 42 WP MM NINA 1953-08-21 18:00:00 ET 38.7000 123.600 spur-other 112 72 __O___________ -1 38.7000 123.600 9 23 1008 11 84
1953231N32116 1953 42 WP MM NINA 1953-08-21 21:00:00 ET 38.7562 124.285 spur-other 69 14 __P___________ -1 38.7562 124.285 9 23 1008 11 85
1953231N32116 1953 42 WP MM NINA 1953-08-22 00:00:00 ET 38.8000 125.000 spur-other 14 0 __O___________ -1 38.8000 125.000 9 23 1008 12 85
1953231N32116 1953 42 WP MM NINA 1953-08-22 03:00:00 ET 38.8569 125.847 spur-other 0 0 __P___________ -1 38.8569 125.847 9 23 1008 14 86
1953231N32116 1953 42 WP MM NINA 1953-08-22 06:00:00 ET 38.9000 126.800 spur-other 0 0 __O___________ -1 38.9000 126.800 9 23 1008 16 88
1953231N32116 1953 42 WP MM NINA 1953-08-22 09:00:00 ET 38.9150 127.842 spur-other 0 0 __P___________ -1 38.9150 127.842 9 23 1008 16 90
1953231N32116 1953 42 WP MM NINA 1953-08-22 12:00:00 ET 38.9000 128.900 spur-other 48 48 __O___________ -1 38.9000 128.900 9 23 1008 16 92
1953231N32116 1953 42 WP MM NINA 1953-08-22 15:00:00 ET 38.8565 129.873 spur-other 131 131 __P___________ -1 38.8565 129.873 9 23 1008 15 94
1953231N32116 1953 42 WP MM NINA 1953-08-22 18:00:00 ET 38.8000 130.800 spur-other 192 192 __O___________ -1 38.8000 130.800 9 23 1008 14 94
1953231N32116 1953 42 WP MM NINA 1953-08-22 21:00:00 ET 38.7488 131.692 spur-other 252 252 __P___________ -1 38.7488 131.692 9 23 1008 14 94
1953231N32116 1953 42 WP MM NINA 1953-08-23 00:00:00 ET 38.7000 132.600 spur-other 324 322 __O___________ -1 38.7000 132.600 9 23 1008 15 94
1953231N32116 1953 42 WP MM NINA 1953-08-23 03:00:00 ET 38.6497 133.592 spur-other 309 241 __P___________ -1 38.6497 133.592 9 23 1008 16 94
1953231N32116 1953 42 WP MM NINA 1953-08-23 06:00:00 ET 38.6000 134.600 spur-other 234 175 __O___________ -1 38.6000 134.600 9 23 1008 16 94
1953231N32116 1953 42 WP MM NINA 1953-08-23 09:00:00 ET 38.5497 135.587 spur-other 161 125 __P___________ -1 38.5497 135.587 9 23 1007 15 94
1953231N32116 1953 42 WP MM NINA 1953-08-23 12:00:00 ET 38.5000 136.500 spur-other 125 122 __O___________ -1 38.5000 136.500 9 23 1006 13 93
1953231N32116 1953 42 WP MM NINA 1953-08-23 15:00:00 ET 38.4931 137.241 spur-other 122 96 __P___________ -1 38.4931 137.241 9 23 1005 12 95
1953231N32116 1953 42 WP MM NINA 1953-08-23 18:00:00 ET 38.4000 138.000 spur-other 96 34 __O___________ -1 38.4000 138.000 9 23 1004 12 109
1953231N32116 1953 42 WP MM NINA 1953-08-23 21:00:00 ET 38.1010 138.735 spur-other 34 0 __P___________ -1 38.1010 138.735 9 23 1004 17 114
1953231N32116 1953 42 WP MM NINA 1953-08-24 00:00:00 ET 37.7000 140.000 spur-other 0 0 __O___________ -1 37.7000 140.000 9 23 1004 30 109
1953231N32116 1953 42 WP MM NINA 1953-08-24 03:00:00 ET 37.1450 142.313 spur-other 114 114 __P___________ -1 37.1450 142.313 9 26 1003 41 103
1953231N32116 1953 42 WP MM NINA 1953-08-24 06:00:00 ET 36.8000 145.000 spur-other 350 350 __O___________ -1 36.8000 145.000 9 29 1002 41 91
1953231N32116 1953 42 WP MM NINA 1953-08-24 09:00:00 ET 37.0440 147.504 spur-other 545 545 __P___________ -1 37.0440 147.504 9 33 998 38 78
1953231N32116 1953 42 WP MM NINA 1953-08-24 12:00:00 ET 37.6000 149.700 spur-other 691 691 __O___________ -1 37.6000 149.700 9 38 995 32 69
1953231N32116 1953 42 WP MM NINA 1953-08-24 15:00:00 ET 38.1615 151.231 spur-other 733 733 __P___________ -1 38.1615 151.231 9 43 992 25 61
1953231N32116 1953 42 WP MM NINA 1953-08-24 18:00:00 ET 38.8000 152.500 spur-other 762 762 __O___________ -1 38.8000 152.500 9 48 990 25 61
1953231N32116 1953 42 WP MM NINA 1953-08-24 21:00:00 ET 39.3762 153.989 spur-other 773 771 __P___________ -1 39.3762 153.989 9 48 990 26 63
1953231N32116 1953 42 WP MM NINA 1953-08-25 00:00:00 ET 40.0000 155.500 spur-other 780 780 __O___________ -1 40.0000 155.500 9 48 990 27 61
1953231N32116 1953 42 WP MM NINA 1953-08-25 03:00:00 ET 40.6521 157.043 spur-other 798 798 __P___________ -1 40.6521 157.043 9 987 27 57
1953231N32116 1953 42 WP MM NINA 1953-08-25 06:00:00 ET 41.5000 158.500 spur-other 824 822 __O___________ -1 41.5000 158.500 9 985 29 46
1953231N32116 1953 42 WP MM NINA 1953-08-25 09:00:00 ET 42.6362 159.827 spur-other 839 794 __P___________ -1 42.6362 159.827 9 982 31 36
1953231N32116 1953 42 WP MM NINA 1953-08-25 12:00:00 ET 44.0000 161.000 spur-other 788 695 __O___________ -1 44.0000 161.000 9 980 34 29
1953231N32116 1953 42 WP MM NINA 1953-08-25 15:00:00 ET 45.5897 162.129 spur-other 687 629 __P___________ -1 45.5897 162.129 9 980 33 25
1953231N32116 1953 42 WP MM NINA 1953-08-25 18:00:00 ET 47.0000 163.000 spur-other 629 585 __O___________ -1 47.0000 163.000 9 980 24 22
1953231N32116 1953 42 WP MM NINA 1953-08-25 21:00:00 ET 47.7754 163.436 spur-other 576 551 __P___________ -1 47.7754 163.436 9 979 14 20
1953231N32116 1953 42 WP MM NINA 1953-08-26 00:00:00 ET 48.3000 163.700 spur-other 551 530 __O___________ -1 48.3000 163.700 9 978 13 23
1953231N32116 1953 42 WP MM NINA 1953-08-26 03:00:00 ET 48.9276 164.179 spur-other 536 501 __P___________ -1 48.9276 164.179 9 979 15 27
1953231N32116 1953 42 WP MM NINA 1953-08-26 06:00:00 ET 49.6000 164.700 spur-other 501 462 __O___________ -1 49.6000 164.700 9 980 16 24
1953231N32116 1953 42 WP MM NINA 1953-08-26 09:00:00 ET 50.3922 165.193 spur-other 459 434 __P___________ -1 50.3922 165.193 9 981 17 22
1953231N32116 1953 42 WP MM NINA 1953-08-26 12:00:00 ET 51.2000 165.700 spur-other 434 411 __O___________ -1 51.2000 165.700 9 982 17 23
1953231N32116 1953 42 WP MM NINA 1953-08-26 15:00:00 ET 51.9224 166.251 spur-other 416 386 __P___________ -1 51.9224 166.251 9 984 16 26
1953231N32116 1953 42 WP MM NINA 1953-08-26 18:00:00 ET 52.6000 166.800 spur-other 386 376 __O___________ -1 52.6000 166.800 9 986 15 26
1953231N32116 1953 42 WP MM NINA 1953-08-26 21:00:00 ET 53.2553 167.310 spur-other 371 371 __P___________ -1 53.2553 167.310 9 988 14 25
1953231N32116 1953 42 WP MM NINA 1953-08-27 00:00:00 ET 53.9000 167.800 spur-other 377 __O___________ -1 53.9000 167.800 9 990 14 24

デジタル台風データ・検索

IBTrACS Databaseについて

本データベースは、米国NOAAが公開する1842年以降の世界の熱帯低気圧のベストトラックデータアーカイブInternational Best Track Archive for Climate Stewardship (IBTrACS)を、ウェブで閲覧しやすい形式に変換したものです。

最終更新日:2021-11-26